Time;durP1;ratioP1;P1;durP2;ratioP2;P2;SDS_P1;SDS_P2;PMS_P1;PMS_P2;Temp;Humidity;BMP_temperature;BMP_pressure;BME280_temperature;BME280_humidity;BME280_pressure;Samples;Min_cycle;Max_cycle;Signal;HPM_P1;HPM_P2
2021/06/27 00:01:10;;;;;;;12.30;10.23;;;17.70;99.90;;;;;;4977456;28;20449;-80
2021/06/27 00:03:37;;;;;;;12.57;11.27;;;17.60;99.90;;;;;;4993908;28;20426;-77
2021/06/27 00:06:05;;;;;;;11.47;9.70;;;17.60;99.90;;;;;;4993337;28;20457;-78
2021/06/27 00:08:34;;;;;;;12.07;10.10;;;17.60;99.90;;;;;;4976496;28;20561;-78
2021/06/27 00:11:01;;;;;;;12.13;10.37;;;17.60;99.90;;;;;;4994276;28;20450;-77
2021/06/27 00:13:30;;;;;;;12.20;10.80;;;17.60;99.90;;;;;;4995101;28;20414;-79
2021/06/27 00:15:57;;;;;;;10.73;9.40;;;17.50;99.90;;;;;;4992541;28;20947;-77
2021/06/27 00:18:26;;;;;;;13.27;11.90;;;17.50;99.90;;;;;;4994784;28;20792;-78
2021/06/27 00:20:56;;;;;;;12.73;11.43;;;17.50;99.90;;;;;;4991484;28;20423;-77
2021/06/27 00:23:25;;;;;;;12.83;11.60;;;17.50;99.90;;;;;;4987236;28;20972;-76
2021/06/27 00:25:53;;;;;;;16.80;12.80;;;17.50;99.90;;;;;;4994460;28;20426;-76
2021/06/27 00:28:20;;;;;;;15.73;12.00;;;17.50;99.90;;;;;;4977169;28;20465;-78
2021/06/27 00:30:50;;;;;;;15.63;13.70;;;17.50;99.90;;;;;;4988371;28;20478;-77
2021/06/27 00:33:17;;;;;;;15.73;12.73;;;17.40;99.90;;;;;;4975207;28;20481;-77
2021/06/27 00:35:45;;;;;;;12.57;10.70;;;17.40;99.90;;;;;;4975255;28;20427;-78
2021/06/27 00:38:12;;;;;;;12.93;10.73;;;17.40;99.90;;;;;;4974837;28;20470;-76
2021/06/27 00:40:40;;;;;;;11.90;10.03;;;17.30;99.90;;;;;;4990324;28;20426;-78
2021/06/27 00:43:07;;;;;;;11.77;10.03;;;17.30;99.90;;;;;;4974843;28;20532;-77
2021/06/27 00:45:36;;;;;;;12.97;10.70;;;17.30;99.90;;;;;;4975320;28;20961;-76
2021/06/27 00:48:04;;;;;;;13.73;10.40;;;17.10;99.90;;;;;;4984515;28;20564;-77
2021/06/27 00:50:52;;;;;;;11.57;10.37;;;17.10;99.90;;;;;;4976846;28;20458;-78
2021/06/27 00:53:19;;;;;;;11.30;9.40;;;17.00;99.90;;;;;;4982866;28;20554;-76
2021/06/27 00:55:55;;;;;;;11.50;9.87;;;17.10;99.90;;;;;;4990075;28;20431;-77
2021/06/27 00:58:33;;;;;;;10.63;8.53;;;17.00;99.90;;;;;;4976018;28;20441;-76
2021/06/27 01:01:03;;;;;;;12.17;8.50;;;17.10;99.90;;;;;;4975908;28;20456;-76
2021/06/27 01:03:30;;;;;;;9.67;8.67;;;17.10;99.90;;;;;;4993842;28;20533;-77
2021/06/27 01:05:57;;;;;;;8.60;7.80;;;17.10;99.90;;;;;;4976090;28;20469;-76
2021/06/27 01:08:25;;;;;;;11.23;8.87;;;17.10;99.90;;;;;;4976365;28;20469;-77
2021/06/27 01:10:51;;;;;;;12.73;10.53;;;17.00;99.90;;;;;;4976057;28;20845;-77
2021/06/27 01:13:24;;;;;;;10.37;9.27;;;17.00;99.90;;;;;;4977787;28;20418;-79
2021/06/27 01:15:52;;;;;;;11.57;9.60;;;17.10;99.90;;;;;;5003079;28;20427;-78
2021/06/27 01:18:19;;;;;;;9.07;8.20;;;17.10;99.90;;;;;;4974133;28;20909;-77
2021/06/27 01:20:48;;;;;;;15.97;10.60;;;17.10;99.90;;;;;;4973803;28;20429;-77
2021/06/27 01:23:16;;;;;;;10.70;9.50;;;17.00;99.90;;;;;;4974266;28;20447;-77
2021/06/27 01:25:47;;;;;;;12.40;9.83;;;17.00;99.90;;;;;;4989491;28;20423;-79
2021/06/27 01:28:14;;;;;;;11.90;10.20;;;17.00;99.90;;;;;;4974315;28;20457;-77
2021/06/27 01:30:42;;;;;;;15.03;9.80;;;16.90;99.90;;;;;;4973058;28;20482;-79
2021/06/27 01:33:14;;;;;;;11.70;10.03;;;16.90;99.90;;;;;;4991001;28;20474;-77
2021/06/27 01:35:42;;;;;;;12.87;11.43;;;16.90;99.90;;;;;;4993751;28;20953;-77
2021/06/27 01:38:11;;;;;;;12.60;11.20;;;16.90;99.90;;;;;;4959325;28;21000;-76
2021/06/27 01:40:38;;;;;;;13.20;11.80;;;16.90;99.90;;;;;;4993650;28;20509;-78
2021/06/27 01:43:19;;;;;;;15.03;13.23;;;16.90;99.90;;;;;;4995364;28;20526;-77
2021/06/27 01:46:04;;;;;;;16.03;14.33;;;16.80;99.90;;;;;;5010798;28;20424;-76
2021/06/27 01:48:33;;;;;;;15.93;14.47;;;16.90;99.90;;;;;;4973956;28;20445;-76
2021/06/27 01:51:02;;;;;;;17.23;14.40;;;16.80;99.90;;;;;;4971963;28;20478;-77
2021/06/27 01:53:32;;;;;;;14.80;13.30;;;16.80;99.90;;;;;;4991758;28;20807;-79
2021/06/27 01:56:09;;;;;;;17.10;12.90;;;16.70;99.90;;;;;;4975448;28;20419;-78
2021/06/27 01:58:42;;;;;;;14.93;13.20;;;16.70;99.90;;;;;;5008554;28;20561;-76
2021/06/27 02:01:36;;;;;;;16.43;12.00;;;16.70;99.90;;;;;;4972959;28;20474;-77
2021/06/27 02:04:06;;;;;;;13.60;12.20;;;16.70;99.90;;;;;;5016476;28;20448;-77
2021/06/27 02:06:41;;;;;;;12.23;11.13;;;16.70;99.90;;;;;;5007878;28;20465;-77
2021/06/27 02:09:11;;;;;;;14.80;11.30;;;16.70;99.90;;;;;;4993865;28;20445;-76
2021/06/27 02:11:39;;;;;;;11.00;9.90;;;16.70;99.90;;;;;;5007963;28;20937;-77
2021/06/27 02:14:06;;;;;;;15.13;10.20;;;16.80;99.90;;;;;;4975561;28;20434;-76
2021/06/27 02:16:34;;;;;;;12.60;10.87;;;16.80;99.90;;;;;;4983308;28;20471;-77
2021/06/27 02:19:02;;;;;;;13.10;11.70;;;16.80;99.90;;;;;;4956505;28;20442;-77
2021/06/27 02:21:33;;;;;;;9.83;8.93;;;16.80;99.90;;;;;;4971787;28;20534;-76
2021/06/27 02:24:00;;;;;;;10.20;8.00;;;16.80;99.90;;;;;;5005127;28;20529;-79
2021/06/27 02:26:28;;;;;;;10.07;7.83;;;16.80;99.90;;;;;;4975110;28;20468;-77
2021/06/27 02:28:58;;;;;;;13.97;8.87;;;16.80;99.90;;;;;;4993096;28;20437;-76
2021/06/27 02:31:31;;;;;;;9.97;8.00;;;16.70;99.90;;;;;;4974756;28;20469;-76
2021/06/27 02:33:59;;;;;;;11.40;8.00;;;16.70;99.90;;;;;;4975812;28;20870;-78
2021/06/27 02:36:26;;;;;;;12.43;8.33;;;16.80;99.90;;;;;;4975019;28;20540;-80
2021/06/27 02:38:54;;;;;;;12.47;8.73;;;16.70;99.90;;;;;;4991171;28;20466;-79
2021/06/27 02:41:21;;;;;;;14.17;8.70;;;16.70;99.90;;;;;;4973165;28;20467;-78
2021/06/27 02:43:48;;;;;;;9.97;7.80;;;16.70;99.90;;;;;;4990062;28;20434;-78
2021/06/27 02:46:15;;;;;;;8.60;7.70;;;16.60;99.90;;;;;;4983439;28;20460;-77
2021/06/27 02:48:42;;;;;;;18.50;8.80;;;16.60;99.90;;;;;;5011795;28;20462;-78
2021/06/27 02:51:09;;;;;;;8.33;7.47;;;16.50;99.90;;;;;;4979217;28;20468;-77
2021/06/27 02:53:36;;;;;;;10.47;9.37;;;16.50;99.90;;;;;;4995892;28;20449;-78
2021/06/27 02:56:09;;;;;;;9.47;7.40;;;16.50;99.90;;;;;;4962777;28;20461;-77
2021/06/27 02:58:41;;;;;;;15.87;8.00;;;16.50;99.90;;;;;;4978804;28;20456;-78
2021/06/27 03:01:09;;;;;;;13.63;8.50;;;16.50;99.90;;;;;;4977644;28;20883;-79
2021/06/27 03:03:42;;;;;;;9.97;8.67;;;16.40;99.90;;;;;;5002526;28;20766;-78
2021/06/27 03:06:10;;;;;;;13.40;8.20;;;16.40;99.90;;;;;;4959407;28;20458;-77
2021/06/27 03:08:37;;;;;;;8.33;7.37;;;16.40;99.90;;;;;;4977510;28;20471;-78
2021/06/27 03:11:06;;;;;;;11.13;9.03;;;16.40;99.90;;;;;;4976462;28;20477;-76
2021/06/27 03:13:34;;;;;;;11.17;9.03;;;16.40;99.90;;;;;;4991687;28;20533;-76
2021/06/27 03:16:01;;;;;;;9.77;8.60;;;16.40;99.90;;;;;;5000347;28;20445;-79
2021/06/27 03:18:28;;;;;;;11.60;9.50;;;16.50;99.90;;;;;;4996153;28;20453;-78
2021/06/27 03:20:55;;;;;;;13.13;9.53;;;16.50;99.90;;;;;;4978436;28;20430;-79
2021/06/27 03:23:22;;;;;;;12.33;9.80;;;16.50;99.90;;;;;;4975149;28;20955;-76
2021/06/27 03:25:49;;;;;;;11.83;9.40;;;16.50;99.90;;;;;;4976259;28;20780;-76
2021/06/27 03:28:18;;;;;;;11.83;10.07;;;16.50;99.90;;;;;;4975190;28;20451;-76
2021/06/27 03:30:44;;;;;;;11.83;10.23;;;16.70;99.90;;;;;;4970057;28;20462;-78
2021/06/27 03:33:11;;;;;;;10.23;8.90;;;16.70;99.90;;;;;;4959481;28;20450;-76
2021/06/27 03:35:38;;;;;;;9.97;9.00;;;16.70;99.90;;;;;;4976840;28;20423;-77
2021/06/27 03:38:10;;;;;;;11.00;8.63;;;16.70;99.90;;;;;;4983987;28;20850;-77
2021/06/27 03:40:39;;;;;;;12.50;11.20;;;16.70;99.90;;;;;;4978360;28;20430;-78
2021/06/27 03:43:06;;;;;;;13.90;9.73;;;16.70;99.90;;;;;;4997387;28;20969;-77
2021/06/27 03:45:33;;;;;;;10.17;9.10;;;16.60;99.90;;;;;;4981853;28;20436;-77
2021/06/27 03:48:00;;;;;;;10.43;9.43;;;16.70;99.90;;;;;;4994873;28;20827;-79
2021/06/27 03:50:26;;;;;;;10.30;9.23;;;16.70;99.90;;;;;;4978879;28;20441;-79
2021/06/27 03:52:53;;;;;;;11.37;8.77;;;16.70;99.90;;;;;;4969367;28;20740;-77
2021/06/27 03:55:20;;;;;;;13.80;9.10;;;16.70;99.90;;;;;;4958447;28;20433;-77
2021/06/27 03:57:48;;;;;;;17.93;8.80;;;16.70;99.90;;;;;;4975719;28;20471;-76
2021/06/27 04:00:16;;;;;;;11.80;8.03;;;16.60;99.90;;;;;;4976001;28;20493;-76
2021/06/27 04:02:44;;;;;;;10.53;8.33;;;16.60;99.90;;;;;;4973853;28;20542;-76
2021/06/27 04:05:12;;;;;;;12.63;9.13;;;16.70;99.90;;;;;;4978172;28;20814;-76
2021/06/27 04:07:39;;;;;;;12.23;8.10;;;16.70;99.90;;;;;;4972683;28;20582;-78
2021/06/27 04:10:07;;;;;;;12.40;8.43;;;16.70;99.90;;;;;;4974923;28;20975;-77
2021/06/27 04:12:34;;;;;;;11.67;8.43;;;16.60;99.90;;;;;;4975428;28;20982;-77
2021/06/27 04:15:02;;;;;;;13.17;8.60;;;16.60;99.90;;;;;;4978884;28;20442;-77
2021/06/27 04:17:29;;;;;;;17.90;8.30;;;16.60;99.90;;;;;;4966946;28;20539;-77
2021/06/27 04:19:56;;;;;;;8.40;7.60;;;16.60;99.90;;;;;;4995110;28;20876;-78
2021/06/27 04:22:23;;;;;;;11.50;7.90;;;16.60;99.90;;;;;;4993853;28;21044;-77
2021/06/27 04:24:50;;;;;;;10.73;7.97;;;16.70;99.90;;;;;;4977530;28;20430;-78
2021/06/27 04:27:18;;;;;;;17.63;8.43;;;16.70;99.90;;;;;;4976705;28;20978;-79
2021/06/27 04:29:45;;;;;;;15.63;8.37;;;16.60;99.90;;;;;;4977653;28;20442;-79
2021/06/27 04:32:12;;;;;;;12.97;8.40;;;16.80;99.90;;;;;;4976415;28;20492;-77
2021/06/27 04:34:39;;;;;;;11.67;10.43;;;16.80;99.90;;;;;;4961301;28;20481;-77
2021/06/27 04:37:06;;;;;;;11.03;8.37;;;16.80;99.90;;;;;;4992391;28;20473;-77
2021/06/27 04:39:33;;;;;;;10.67;8.47;;;16.80;99.90;;;;;;4974046;28;20438;-77
2021/06/27 04:42:00;;;;;;;9.97;8.97;;;16.80;99.90;;;;;;4974774;28;20546;-78
2021/06/27 04:44:27;;;;;;;9.57;7.60;;;16.80;99.90;;;;;;4958209;28;20435;-78
2021/06/27 04:46:54;;;;;;;12.30;9.13;;;16.90;99.90;;;;;;4990524;28;20487;-77
2021/06/27 04:49:21;;;;;;;10.13;8.33;;;17.00;99.90;;;;;;4994547;28;20421;-79
2021/06/27 04:51:48;;;;;;;10.67;9.13;;;16.90;99.90;;;;;;4992758;28;20552;-78
2021/06/27 04:54:16;;;;;;;12.23;7.80;;;17.00;99.90;;;;;;4993760;28;20508;-77
2021/06/27 04:56:43;;;;;;;11.40;8.30;;;16.90;99.90;;;;;;4975921;28;20473;-77
2021/06/27 04:59:10;;;;;;;10.60;9.00;;;17.00;99.90;;;;;;4976841;28;20445;-76
2021/06/27 05:01:37;;;;;;;10.27;9.27;;;17.10;99.90;;;;;;4976121;28;20476;-77
2021/06/27 05:04:04;;;;;;;12.63;9.50;;;17.30;99.90;;;;;;4976237;28;20457;-78
2021/06/27 05:06:31;;;;;;;11.60;9.40;;;17.40;99.90;;;;;;4959470;28;20458;-80
2021/06/27 05:08:57;;;;;;;9.53;8.60;;;17.60;99.90;;;;;;4959519;28;20458;-79
2021/06/27 05:11:24;;;;;;;14.23;9.07;;;17.60;99.90;;;;;;4959161;28;20478;-78
2021/06/27 05:13:51;;;;;;;11.50;10.40;;;17.70;99.90;;;;;;4974584;28;20427;-77
2021/06/27 05:16:18;;;;;;;12.77;9.37;;;17.80;99.90;;;;;;4990832;28;20462;-78
2021/06/27 05:18:45;;;;;;;10.27;9.30;;;17.90;99.90;;;;;;4993636;28;20441;-77
2021/06/27 05:21:12;;;;;;;10.63;9.40;;;18.00;99.90;;;;;;4993258;28;20457;-77
2021/06/27 05:23:38;;;;;;;10.10;9.10;;;18.10;99.90;;;;;;4976403;28;20807;-77
2021/06/27 05:26:05;;;;;;;12.73;11.43;;;18.10;99.90;;;;;;4992947;28;20462;-77
2021/06/27 05:28:32;;;;;;;11.60;10.23;;;18.10;99.90;;;;;;4975947;28;20454;-78
2021/06/27 05:30:59;;;;;;;10.90;9.80;;;18.20;99.90;;;;;;4974874;28;20430;-77
2021/06/27 05:33:26;;;;;;;10.77;9.67;;;18.30;99.90;;;;;;4993762;28;20414;-79
2021/06/27 05:35:53;;;;;;;13.70;10.17;;;18.40;99.90;;;;;;4976109;28;20458;-77
2021/06/27 05:38:20;;;;;;;12.50;10.80;;;18.50;99.90;;;;;;4992339;28;20454;-79
2021/06/27 05:40:47;;;;;;;10.57;9.40;;;18.60;99.90;;;;;;4975271;28;20422;-77
2021/06/27 05:43:13;;;;;;;12.13;10.70;;;18.60;99.90;;;;;;4960535;28;20421;-77
2021/06/27 05:45:40;;;;;;;12.83;10.63;;;18.70;99.90;;;;;;4976795;28;20430;-77
2021/06/27 05:48:08;;;;;;;11.30;10.10;;;18.70;99.90;;;;;;4993297;28;21064;-77
2021/06/27 05:50:35;;;;;;;10.80;9.70;;;18.70;99.90;;;;;;4993960;28;20414;-81
2021/06/27 05:53:03;;;;;;;11.83;9.60;;;18.70;99.90;;;;;;4993610;28;20485;-79
2021/06/27 05:55:30;;;;;;;12.13;9.33;;;18.70;99.90;;;;;;4994269;28;20452;-78
2021/06/27 05:57:56;;;;;;;16.97;10.50;;;18.70;99.90;;;;;;4995393;28;20466;-76
2021/06/27 06:00:23;;;;;;;12.80;11.27;;;18.70;99.90;;;;;;4994302;28;20426;-75
2021/06/27 06:02:50;;;;;;;11.40;10.30;;;18.80;99.90;;;;;;4994853;28;20472;-78
2021/06/27 06:05:17;;;;;;;11.63;9.90;;;18.80;99.90;;;;;;4978232;28;20449;-75
2021/06/27 06:07:46;;;;;;;9.83;8.87;;;18.80;99.90;;;;;;4976239;28;20564;-77
2021/06/27 06:10:13;;;;;;;13.07;9.97;;;18.80;99.90;;;;;;4977641;28;20440;-77
2021/06/27 06:12:39;;;;;;;10.90;9.00;;;19.00;99.90;;;;;;4994924;28;20484;-79
2021/06/27 06:15:07;;;;;;;10.77;9.70;;;19.10;99.90;;;;;;4996624;28;20968;-76
2021/06/27 06:17:34;;;;;;;9.80;8.90;;;19.20;99.90;;;;;;4996668;28;20473;-77
2021/06/27 06:20:01;;;;;;;11.50;9.20;;;19.20;99.90;;;;;;4997278;28;20608;-76
2021/06/27 06:22:28;;;;;;;13.57;10.70;;;19.30;99.90;;;;;;4992912;28;20486;-76
2021/06/27 06:24:55;;;;;;;12.00;10.50;;;19.30;99.90;;;;;;4992831;28;20439;-80
2021/06/27 06:27:22;;;;;;;14.97;10.50;;;19.40;99.90;;;;;;4975703;28;20463;-76
2021/06/27 06:29:49;;;;;;;11.00;9.83;;;19.40;99.90;;;;;;4993558;28;20420;-78
2021/06/27 06:32:16;;;;;;;12.70;10.20;;;19.50;99.90;;;;;;4995653;28;20476;-78
2021/06/27 06:34:43;;;;;;;14.07;10.30;;;19.50;99.90;;;;;;4979876;28;20798;-76
2021/06/27 06:37:10;;;;;;;17.63;9.90;;;19.50;99.90;;;;;;4985247;28;20463;-77
2021/06/27 06:39:36;;;;;;;12.43;11.13;;;19.50;99.90;;;;;;4993252;28;20416;-77
2021/06/27 06:42:04;;;;;;;13.73;11.00;;;19.60;99.90;;;;;;4991905;28;20468;-76
2021/06/27 06:44:30;;;;;;;11.67;10.47;;;19.70;99.90;;;;;;4977180;28;20422;-76
2021/06/27 06:46:57;;;;;;;12.20;9.80;;;19.70;99.90;;;;;;4986497;28;20853;-76
2021/06/27 06:49:24;;;;;;;11.27;10.17;;;19.80;99.90;;;;;;4996972;28;20426;-76
2021/06/27 06:51:51;;;;;;;10.77;9.70;;;19.90;99.90;;;;;;4996270;28;20510;-76
2021/06/27 06:54:18;;;;;;;11.60;10.40;;;19.90;99.90;;;;;;4995110;28;20988;-76
2021/06/27 06:56:44;;;;;;;10.67;9.37;;;19.90;99.90;;;;;;4996204;28;20826;-76
2021/06/27 06:59:11;;;;;;;12.57;10.70;;;19.90;99.90;;;;;;4995391;28;20426;-77
2021/06/27 07:01:41;;;;;;;13.10;10.40;;;19.80;99.90;;;;;;4994764;28;20520;-76
2021/06/27 07:04:07;;;;;;;10.23;9.23;;;19.90;99.90;;;;;;4996551;28;20430;-76
2021/06/27 07:06:34;;;;;;;10.40;9.50;;;20.00;99.90;;;;;;4995975;28;20460;-77
2021/06/27 07:09:01;;;;;;;13.67;10.50;;;20.20;99.90;;;;;;4980992;28;20450;-76
2021/06/27 07:11:28;;;;;;;13.17;8.67;;;20.30;99.90;;;;;;4994395;28;20470;-76
2021/06/27 07:13:55;;;;;;;10.50;8.97;;;20.40;99.90;;;;;;4979751;28;20434;-77
2021/06/27 07:16:22;;;;;;;10.63;9.53;;;20.40;99.90;;;;;;4990555;28;20462;-76
2021/06/27 07:18:49;;;;;;;9.87;8.87;;;20.60;99.90;;;;;;5011251;28;20537;-76
2021/06/27 07:21:16;;;;;;;12.63;11.37;;;20.80;99.90;;;;;;5007469;28;20446;-77
2021/06/27 07:23:43;;;;;;;12.10;10.67;;;21.00;99.90;;;;;;4989908;28;20460;-76
2021/06/27 07:26:10;;;;;;;10.87;9.80;;;21.20;99.90;;;;;;4990710;28;20970;-76
2021/06/27 07:28:40;;;;;;;11.13;9.60;;;21.20;99.90;;;;;;4959524;28;20555;-75
2021/06/27 07:31:08;;;;;;;11.83;10.67;;;21.30;99.90;;;;;;4958636;28;22638;-78
2021/06/27 07:33:36;;;;;;;11.70;10.60;;;21.40;99.90;;;;;;4976568;28;20462;-79
2021/06/27 07:36:04;;;;;;;12.50;10.37;;;21.50;99.90;;;;;;4976976;28;20442;-75
2021/06/27 07:38:31;;;;;;;9.47;8.57;;;21.50;99.90;;;;;;4993674;28;20847;-76
2021/06/27 07:40:59;;;;;;;10.43;9.43;;;21.70;99.90;;;;;;4995743;28;20428;-76
2021/06/27 07:43:26;;;;;;;9.63;8.40;;;21.60;99.90;;;;;;4995784;28;20426;-78
2021/06/27 07:45:53;;;;;;;10.43;8.43;;;21.70;99.90;;;;;;5009292;28;20429;-75
2021/06/27 07:48:20;;;;;;;19.67;10.60;;;21.70;99.90;;;;;;5010630;28;20488;-77
2021/06/27 07:50:47;;;;;;;11.27;9.10;;;21.90;99.90;;;;;;4994356;28;20426;-76
2021/06/27 07:53:14;;;;;;;11.40;9.43;;;21.90;99.90;;;;;;4983552;28;20481;-78
2021/06/27 07:55:41;;;;;;;10.23;9.23;;;21.90;99.90;;;;;;4991106;28;20441;-80
2021/06/27 07:58:08;;;;;;;11.03;8.90;;;22.10;99.90;;;;;;4974045;28;20470;-79
2021/06/27 08:00:35;;;;;;;10.00;8.67;;;22.10;99.90;;;;;;4978410;28;20438;-76
2021/06/27 08:03:04;;;;;;;12.80;9.00;;;22.20;99.90;;;;;;4995339;28;20465;-76
2021/06/27 08:05:33;;;;;;;9.97;9.07;;;22.30;99.90;;;;;;4995465;28;20438;-77
2021/06/27 08:08:01;;;;;;;10.33;9.07;;;22.40;99.90;;;;;;4985203;28;20566;-77
2021/06/27 08:10:29;;;;;;;10.33;9.30;;;22.50;99.90;;;;;;4991616;28;20521;-75
2021/06/27 08:12:56;;;;;;;10.27;9.17;;;22.50;99.90;;;;;;4975261;28;20486;-75
2021/06/27 08:15:23;;;;;;;10.53;9.23;;;22.50;99.90;;;;;;4981524;28;20436;-75
2021/06/27 08:17:51;;;;;;;10.37;9.20;;;22.50;99.90;;;;;;4993150;28;20572;-77
2021/06/27 08:20:22;;;;;;;10.70;9.70;;;22.50;99.90;;;;;;4994144;28;20904;-78
2021/06/27 08:22:50;;;;;;;10.57;9.47;;;22.50;99.90;;;;;;4993716;28;20994;-78
2021/06/27 08:25:17;;;;;;;10.07;9.07;;;22.50;99.90;;;;;;4995559;28;20431;-78
2021/06/27 08:27:45;;;;;;;10.53;9.47;;;22.60;99.90;;;;;;4994030;28;20493;-78
2021/06/27 08:30:14;;;;;;;9.90;9.00;;;22.50;99.90;;;;;;4993501;28;20427;-78
2021/06/27 08:32:43;;;;;;;10.17;9.17;;;22.60;99.90;;;;;;4994034;28;20493;-78
2021/06/27 08:35:11;;;;;;;8.60;7.80;;;22.70;99.90;;;;;;4977569;28;20804;-77
2021/06/27 08:37:38;;;;;;;9.60;8.00;;;22.80;99.90;;;;;;4985590;28;20538;-76
2021/06/27 08:40:06;;;;;;;10.90;9.97;;;23.00;99.90;;;;;;4994019;28;20429;-76
2021/06/27 08:42:33;;;;;;;10.00;9.07;;;23.00;99.90;;;;;;4993305;28;20478;-78
2021/06/27 08:45:01;;;;;;;11.23;9.23;;;23.00;99.90;;;;;;4990800;28;20460;-78
2021/06/27 08:47:29;;;;;;;9.23;8.43;;;23.20;99.90;;;;;;4985187;28;20479;-77
2021/06/27 08:49:56;;;;;;;11.07;9.97;;;23.20;99.90;;;;;;4977098;28;20443;-76
2021/06/27 08:52:23;;;;;;;11.10;9.80;;;23.20;99.90;;;;;;5005173;28;20494;-77
2021/06/27 08:54:52;;;;;;;11.60;10.40;;;23.20;99.90;;;;;;4994415;28;20426;-80
2021/06/27 08:57:21;;;;;;;10.40;9.10;;;23.30;99.90;;;;;;4979149;28;20469;-81
2021/06/27 08:59:49;;;;;;;11.23;10.10;;;23.40;99.90;;;;;;4996545;28;20952;-80
2021/06/27 09:02:16;;;;;;;10.50;9.40;;;23.40;99.90;;;;;;4995323;28;20514;-80
2021/06/27 09:04:44;;;;;;;11.20;10.13;;;23.50;99.90;;;;;;4975566;28;20455;-80
2021/06/27 09:07:31;;;;;;;9.57;8.73;;;23.60;99.90;;;;;;4959826;28;20462;-80
2021/06/27 09:10:23;;;;;;;10.87;9.17;;;23.60;99.90;;;;;;4977481;28;20452;-82
2021/06/27 09:12:58;;;;;;;10.50;9.60;;;23.80;99.90;;;;;;4975727;28;20524;-81
2021/06/27 09:15:40;;;;;;;10.60;9.60;;;23.80;99.90;;;;;;4978925;28;20445;-81
2021/06/27 09:18:28;;;;;;;11.50;10.40;;;23.90;99.90;;;;;;4961025;28;20536;-81
2021/06/27 09:20:57;;;;;;;10.27;9.27;;;24.00;99.90;;;;;;4977460;28;20540;-81
2021/06/27 09:23:39;;;;;;;10.70;9.73;;;24.10;99.90;;;;;;4961987;28;20457;-81
2021/06/27 09:26:07;;;;;;;13.07;11.20;;;24.20;99.90;;;;;;4992155;28;20477;-81
2021/06/27 09:28:49;;;;;;;12.73;11.57;;;24.30;99.90;;;;;;4993440;28;20467;-81
2021/06/27 09:31:36;;;;;;;11.07;9.90;;;24.50;99.90;;;;;;4995403;28;20472;-80
2021/06/27 09:34:07;;;;;;;11.50;10.47;;;24.50;99.90;;;;;;4997359;28;20693;-81
2021/06/27 09:36:37;;;;;;;11.87;10.77;;;24.60;99.90;;;;;;4997523;28;20487;-82
2021/06/27 09:39:10;;;;;;;10.83;9.77;;;24.80;99.90;;;;;;4998492;28;20495;-81
2021/06/27 09:41:52;;;;;;;11.93;9.80;;;24.90;99.90;;;;;;5015174;28;20465;-81
2021/06/27 09:44:21;;;;;;;10.03;9.13;;;25.00;99.90;;;;;;4998686;28;20453;-81
2021/06/27 09:46:53;;;;;;;10.70;9.60;;;25.10;99.50;;;;;;4988601;28;20467;-81
2021/06/27 09:49:26;;;;;;;10.00;9.00;;;25.20;99.90;;;;;;4962088;28;20442;-82
2021/06/27 09:52:07;;;;;;;10.43;9.50;;;25.30;99.50;;;;;;4976630;28;20556;-81
2021/06/27 09:54:36;;;;;;;9.57;8.60;;;25.30;99.30;;;;;;5001804;28;20429;-81
2021/06/27 09:57:04;;;;;;;9.90;9.00;;;25.30;97.90;;;;;;5007231;28;20462;-80
2021/06/27 09:59:42;;;;;;;10.00;9.00;;;25.50;98.40;;;;;;4990456;28;20948;-82
2021/06/27 10:02:11;;;;;;;9.80;8.90;;;25.50;98.30;;;;;;4999511;28;20473;-82
2021/06/27 10:04:40;;;;;;;11.03;9.10;;;25.70;97.90;;;;;;4987781;28;20451;-83
2021/06/27 10:07:08;;;;;;;11.43;9.57;;;25.70;97.40;;;;;;5001708;28;20500;-82
2021/06/27 10:09:40;;;;;;;8.70;7.87;;;25.80;96.60;;;;;;5000685;28;20673;-82
2021/06/27 10:12:18;;;;;;;9.73;8.83;;;25.90;95.80;;;;;;4997433;28;20470;-82
2021/06/27 10:15:15;;;;;;;10.83;9.87;;;25.90;96.30;;;;;;5002801;28;20993;-83
2021/06/27 10:17:46;;;;;;;9.10;8.30;;;25.90;95.60;;;;;;5001810;28;20461;-82
2021/06/27 10:20:18;;;;;;;8.90;8.20;;;25.90;94.40;;;;;;5005549;28;20430;-83
2021/06/27 10:22:48;;;;;;;8.40;7.70;;;25.90;94.50;;;;;;5002203;28;20467;-82
2021/06/27 10:25:38;;;;;;;9.77;8.77;;;25.90;93.90;;;;;;4981052;28;20438;-82
2021/06/27 10:28:14;;;;;;;10.00;9.10;;;25.90;93.60;;;;;;4984644;28;20533;-82
2021/06/27 10:30:44;;;;;;;9.23;8.43;;;25.90;92.50;;;;;;4979600;28;20445;-84
2021/06/27 10:33:16;;;;;;;9.20;8.40;;;25.90;92.10;;;;;;4950986;28;20475;-83
2021/06/27 10:36:05;;;;;;;9.53;8.73;;;25.90;93.10;;;;;;4971848;28;20459;-82
2021/06/27 10:38:34;;;;;;;8.63;7.87;;;25.90;93.30;;;;;;4989456;28;20458;-82
2021/06/27 10:41:02;;;;;;;8.47;7.67;;;25.80;93.60;;;;;;5004438;28;20650;-81
2021/06/27 10:43:56;;;;;;;9.20;8.40;;;25.80;93.50;;;;;;5007092;28;20430;-82
2021/06/27 10:46:45;;;;;;;8.20;7.50;;;25.90;93.10;;;;;;5003582;28;20885;-81
2021/06/27 10:49:32;;;;;;;8.10;7.40;;;25.80;91.20;;;;;;4997423;28;20474;-81
2021/06/27 10:52:04;;;;;;;9.50;8.60;;;25.80;91.90;;;;;;4963583;28;21037;-80
2021/06/27 10:54:32;;;;;;;9.20;8.37;;;25.70;93.30;;;;;;4991201;28;20545;-81
2021/06/27 10:57:01;;;;;;;8.83;7.93;;;25.70;94.10;;;;;;4993614;28;20557;-80
2021/06/27 10:59:51;;;;;;;7.77;7.07;;;25.60;95.00;;;;;;4994474;28;20430;-78
2021/06/27 11:02:34;;;;;;;7.60;6.90;;;25.60;90.20;;;;;;4972056;28;20468;-79
2021/06/27 11:05:32;;;;;;;7.83;7.20;;;25.70;91.20;;;;;;4941422;28;20474;-78
2021/06/27 11:08:01;;;;;;;6.63;6.03;;;25.70;92.60;;;;;;4978603;28;20541;-79
2021/06/27 11:10:31;;;;;;;7.30;6.70;;;25.80;91.40;;;;;;4980305;28;20516;-80
2021/06/27 11:13:01;;;;;;;7.40;6.80;;;25.80;91.50;;;;;;4997322;28;20479;-79
2021/06/27 11:15:35;;;;;;;7.30;6.70;;;25.80;92.50;;;;;;4994754;28;20472;-80
2021/06/27 11:18:07;;;;;;;8.57;6.47;;;25.80;92.10;;;;;;4955131;28;20817;-80
2021/06/27 11:20:36;;;;;;;7.77;6.40;;;25.70;92.00;;;;;;4978904;28;20800;-79
2021/06/27 11:23:03;;;;;;;7.47;6.87;;;25.70;90.50;;;;;;5004612;28;20487;-78
2021/06/27 11:25:39;;;;;;;8.73;7.90;;;25.70;90.20;;;;;;4997362;28;20547;-78
2021/06/27 11:28:19;;;;;;;7.73;7.07;;;25.60;90.20;;;;;;4997379;28;20534;-78
2021/06/27 11:31:23;;;;;;;8.13;7.37;;;25.60;90.20;;;;;;5014198;28;20420;-79
2021/06/27 11:34:31;;;;;;;8.73;7.83;;;25.60;91.00;;;;;;4996074;28;20508;-79
2021/06/27 11:37:18;;;;;;;8.40;7.70;;;25.50;92.00;;;;;;4986009;28;20480;-77
2021/06/27 11:39:55;;;;;;;9.83;7.70;;;25.50;91.90;;;;;;4960493;28;20959;-81
2021/06/27 11:42:23;;;;;;;7.50;6.80;;;25.50;91.90;;;;;;4958982;28;20453;-79
2021/06/27 11:45:11;;;;;;;7.87;7.17;;;25.50;91.20;;;;;;4974660;28;20421;-80
2021/06/27 11:47:50;;;;;;;8.13;7.43;;;25.50;90.80;;;;;;4976369;28;20838;-78
2021/06/27 11:50:26;;;;;;;7.27;6.57;;;25.50;90.70;;;;;;4979241;28;20441;-80
2021/06/27 11:53:01;;;;;;;8.33;6.60;;;25.50;90.20;;;;;;4994358;28;20485;-79
2021/06/27 11:55:30;;;;;;;6.47;5.97;;;25.50;87.00;;;;;;4993962;28;20443;-79
2021/06/27 11:57:58;;;;;;;7.20;6.60;;;25.50;87.50;;;;;;4993609;28;20465;-78
2021/06/27 12:00:52;;;;;;;6.90;6.30;;;25.50;86.70;;;;;;4961852;28;20437;-78
2021/06/27 12:03:21;;;;;;;8.73;5.73;;;25.60;86.10;;;;;;4973641;28;20884;-78
2021/06/27 12:06:00;;;;;;;6.40;5.80;;;25.60;87.00;;;;;;4957385;28;20442;-80
2021/06/27 12:08:30;;;;;;;5.30;4.80;;;25.70;88.60;;;;;;4970135;28;20532;-79
2021/06/27 12:11:00;;;;;;;5.67;5.27;;;25.80;85.40;;;;;;4996830;28;20517;-79
2021/06/27 12:13:28;;;;;;;4.90;4.50;;;25.90;78.40;;;;;;5003092;28;20463;-78
2021/06/27 12:15:58;;;;;;;4.27;3.93;;;26.00;76.30;;;;;;5013700;28;20437;-79
2021/06/27 12:18:27;;;;;;;4.93;4.53;;;26.10;73.60;;;;;;4997980;28;20524;-79
2021/06/27 12:20:56;;;;;;;5.23;4.83;;;26.10;76.50;;;;;;4977973;28;20438;-77
2021/06/27 12:23:34;;;;;;;5.40;5.00;;;26.20;72.30;;;;;;4976843;28;20950;-78
2021/06/27 12:26:09;;;;;;;5.30;4.90;;;26.20;72.10;;;;;;4993972;28;20425;-80
2021/06/27 12:28:41;;;;;;;5.53;5.10;;;26.20;72.40;;;;;;4996196;28;20457;-79
2021/06/27 12:31:18;;;;;;;5.50;5.00;;;26.20;73.40;;;;;;4994929;28;20489;-81
2021/06/27 12:33:48;;;;;;;5.07;4.67;;;26.20;71.50;;;;;;4979215;28;20473;-81
2021/06/27 12:36:46;;;;;;;5.27;4.40;;;26.30;68.00;;;;;;4980761;28;20481;-79
2021/06/27 12:39:18;;;;;;;6.40;4.63;;;26.30;69.60;;;;;;4975574;28;20836;-80
2021/06/27 12:41:45;;;;;;;5.23;4.70;;;26.50;68.30;;;;;;4985977;28;20496;-79
2021/06/27 12:44:16;;;;;;;7.13;4.60;;;26.50;66.40;;;;;;4995899;28;20462;-80
2021/06/27 12:46:43;;;;;;;4.37;3.93;;;26.50;65.80;;;;;;4996504;28;20475;-78
2021/06/27 12:49:19;;;;;;;4.90;4.50;;;26.50;68.90;;;;;;4999502;28;20429;-78
2021/06/27 12:52:08;;;;;;;5.90;5.30;;;26.40;66.00;;;;;;5014274;28;20456;-80
2021/06/27 12:54:46;;;;;;;6.33;4.53;;;26.30;69.50;;;;;;5000760;28;20481;-80